Current Conditions
Partly Cloudy
Conditions



Pressure
1011.92 (hPa) - 29.88 (inHG)
Visibility

10.0 (km) - 6.2 (miles)
Temperature
29  °C
Temperature
24  °C
Dewpoint
74  %
 Humidity
Wind Speed
5  km/h
3  kts
3  mph
1.3  m/s
Wind Direction
N
45°
E
90°
135°
S
180°
225°
W
270°
315°
 260°

Due West
Airport Data
WSSL
Seletar Airport
Metar :WSSL 220300Z 26003KT 220V320 9999 FEW018TCU SCT270 BKN300 29/24 Q1012
Tue 22nd June 11:00 am
Raw Metar Info
Raw METAR is the most common format in the world for the transmission of observational weather data. It is highly standardized through the International Civil Aviation Organization (ICAO), which allows it to be understood throughout most of the world.
API Info
Data Provided by
https://www.checkwx.com/weather/WSSL

Aviation Weather providing METAR, TAF, AIRMET, SIGMET and OUTLOOK Weather Reports
© Info
CSS/SVG/PHP scripts were developed by weather34.com for use in the weather34 template © 2015-2021

Guide Info provided by Metar-Wikipedia